^^
Grace C. Lehan Memorial Weather Station Historical Data
Daily Summary for January 12, 2021 Units:  English    Metric   Both
Daily Weekly Monthly Yearly
  High: Low: Average:
Temperature: 48.8 °F 47.3 °F 48.2 °F
Dew Point: 34 °F 33.4 °F 33.6 °F
Humidity: 59.3% 55% 57%
Wind Speed: 3.9mph 0mph 1.4mph
Wind Gust: 15mph - -
Wind- - WNW
Pressure: 30.04 in 30.02 in -
Precipitation: 0.00 in    
 
 
Tabular Data for January 12, 2021
Time Temperature Dew Point Pressure Wind Wind Speed Wind Gust Humidity Rainfall Rate (Hourly) solar
00:04 48.8 °F 33.4 °F 30.02 in NW 0.6 mph 3 mph 55% 0.00 in 0 W/m2
00:09 48.8 °F 33.4 °F 30.02 in WNW 1.8 mph 7 mph 55% 0.00 in 0 W/m2
00:14 48.8 °F 33.4 °F 30.03 in WNW 0.4 mph 7 mph 55% 0.00 in 0 W/m2
00:19 48.8 °F 33.4 °F 30.03 in WNW 1 mph 9 mph 55% 0.00 in 0 W/m2
00:24 48.8 °F 33.4 °F 30.03 in WNW 1.5 mph 9 mph 55% 0.00 in 0 W/m2
00:29 48.8 °F 33.4 °F 30.03 in WNW 2.3 mph 10 mph 55% 0.00 in 0 W/m2
00:34 48.8 °F 33.4 °F 30.04 in WNW 1.2 mph 10 mph 55% 0.00 in 0 W/m2
00:39 48.8 °F 33.4 °F 30.04 in WNW 3.1 mph 15 mph 55% 0.00 in 0 W/m2
00:44 48.8 °F 33.4 °F 30.04 in WNW 1.7 mph 15 mph 55% 0.00 in 0 W/m2
00:49 48.8 °F 33.4 °F 30.03 in WNW 1.8 mph 15 mph 55.2% 0.00 in 0 W/m2
00:54 48.8 °F 33.5 °F 30.03 in WNW 2 mph 15 mph 55.3% 0.00 in 0 W/m2
00:59 48.7 °F 33.5 °F 30.03 in WNW 3.9 mph 15 mph 55.5% 0.00 in 0 W/m2
01:04 48.7 °F 33.5 °F 30.03 in West 1.5 mph 15 mph 55.5% 0.00 in 0 W/m2
01:09 48.6 °F 33.7 °F 30.03 in West 3.3 mph 11 mph 56% 0.00 in 0 W/m2
01:14 48.6 °F 33.6 °F 30.03 in West 1.7 mph 11 mph 56% 0.00 in 0 W/m2
01:19 48.5 °F 33.7 °F 30.03 in WNW 1.4 mph 11 mph 56.5% 0.00 in 0 W/m2
01:24 48.4 °F 33.4 °F 30.03 in WSW 0.9 mph 11 mph 56% 0.00 in 0 W/m2
01:29 48.3 °F 33.5 °F 30.03 in WNW 0.2 mph 11 mph 56.4% 0.00 in 0 W/m2
01:34 48.2 °F 33.7 °F 30.03 in NW 0.8 mph 11 mph 57% 0.00 in 0 W/m2
01:39 48.1 °F 33.5 °F 30.03 in WNW 0.2 mph 5 mph 56.8% 0.00 in 0 W/m2
01:44 48 °F 33.7 °F 30.03 in Calm   5 mph 57.4% 0.00 in 0 W/m2
01:49 47.8 °F 33.7 °F 30.03 in WNW 0.4 mph 5 mph 57.7% 0.00 in 0 W/m2
01:54 47.7 °F 33.7 °F 30.03 in Calm   5 mph 58% 0.00 in 0 W/m2
01:59 47.6 °F 33.6 °F 30.02 in West 2.3 mph 10 mph 58% 0.00 in 0 W/m2
02:04 47.5 °F 33.8 °F 30.02 in WNW 2.6 mph 10 mph 58.9% 0.00 in 0 W/m2
02:09 47.5 °F 33.9 °F 30.03 in WNW 0.9 mph 10 mph 59% 0.00 in 0 W/m2
02:14 47.4 °F 34 °F 30.02 in WNW 0.9 mph 10 mph 59.3% 0.00 in 0 W/m2
02:19 47.3 °F 33.7 °F 30.02 in WNW 0.7 mph 10 mph 59% 0.00 in 0 W/m2
02:24 47.3 °F 33.7 °F 30.02 in WNW 2.4 mph 12 mph 59% 0.00 in 0 W/m2
02:29 47.3 °F 33.7 °F 30.02 in WNW 1.8 mph 12 mph 59% 0.00 in 0 W/m2
02:34 47.4 °F 33.7 °F 30.03 in WNW 1 mph 12 mph 58.7% 0.00 in 0 W/m2
02:38 47.4 °F 33.6 °F 30.03 in Calm   9 mph 58.5% 0.00 in 0 W/m2
Hartford County Weather
Compliments of Weather Underground - 2 mb